sensor_id;sensor_type;location;lat;lon;timestamp;temperature;humidity
52211;DHT22;38179;52.756;6.906;2022-11-09T00:02:21;13.40;99.90
52211;DHT22;38179;52.756;6.906;2022-11-09T00:04:47;13.40;99.90
52211;DHT22;38179;52.756;6.906;2022-11-09T00:07:13;13.40;99.90
52211;DHT22;38179;52.756;6.906;2022-11-09T00:09:39;13.40;99.90
52211;DHT22;38179;52.756;6.906;2022-11-09T00:12:05;13.40;99.90
52211;DHT22;38179;52.756;6.906;2022-11-09T00:14:32;13.40;99.90
52211;DHT22;38179;52.756;6.906;2022-11-09T00:16:59;13.30;99.90
52211;DHT22;38179;52.756;6.906;2022-11-09T00:19:25;13.30;99.90
52211;DHT22;38179;52.756;6.906;2022-11-09T00:21:51;13.30;99.90
52211;DHT22;38179;52.756;6.906;2022-11-09T00:24:17;13.30;99.90
52211;DHT22;38179;52.756;6.906;2022-11-09T00:26:43;13.30;99.90
52211;DHT22;38179;52.756;6.906;2022-11-09T00:29:09;13.30;99.90
52211;DHT22;38179;52.756;6.906;2022-11-09T00:31:35;13.30;99.90
52211;DHT22;38179;52.756;6.906;2022-11-09T00:34:01;13.30;99.90
52211;DHT22;38179;52.756;6.906;2022-11-09T00:36:28;13.30;99.90
52211;DHT22;38179;52.756;6.906;2022-11-09T00:38:56;13.30;99.90
52211;DHT22;38179;52.756;6.906;2022-11-09T00:41:23;13.20;99.90
52211;DHT22;38179;52.756;6.906;2022-11-09T00:43:50;13.20;99.90
52211;DHT22;38179;52.756;6.906;2022-11-09T00:46:17;13.20;99.90
52211;DHT22;38179;52.756;6.906;2022-11-09T00:48:43;13.20;99.90
52211;DHT22;38179;52.756;6.906;2022-11-09T00:51:10;13.20;99.90
52211;DHT22;38179;52.756;6.906;2022-11-09T00:53:36;13.20;99.90
52211;DHT22;38179;52.756;6.906;2022-11-09T00:56:12;13.20;99.90
52211;DHT22;38179;52.756;6.906;2022-11-09T00:58:38;13.20;99.90
52211;DHT22;38179;52.756;6.906;2022-11-09T01:01:16;13.30;99.90
52211;DHT22;38179;52.756;6.906;2022-11-09T01:03:43;13.30;99.90
52211;DHT22;38179;52.756;6.906;2022-11-09T01:06:14;13.30;99.90
52211;DHT22;38179;52.756;6.906;2022-11-09T01:08:40;13.30;99.90
52211;DHT22;38179;52.756;6.906;2022-11-09T01:11:08;13.30;99.90
52211;DHT22;38179;52.756;6.906;2022-11-09T01:13:35;13.30;99.90
52211;DHT22;38179;52.756;6.906;2022-11-09T01:16:05;13.30;99.90
52211;DHT22;38179;52.756;6.906;2022-11-09T01:18:31;13.30;99.90
52211;DHT22;38179;52.756;6.906;2022-11-09T01:20:57;13.30;99.90
52211;DHT22;38179;52.756;6.906;2022-11-09T01:23:23;13.30;99.90
52211;DHT22;38179;52.756;6.906;2022-11-09T01:25:59;13.30;99.90
52211;DHT22;38179;52.756;6.906;2022-11-09T01:28:26;13.40;99.90
52211;DHT22;38179;52.756;6.906;2022-11-09T01:30:52;13.40;99.90
52211;DHT22;38179;52.756;6.906;2022-11-09T01:33:18;13.40;99.90
52211;DHT22;38179;52.756;6.906;2022-11-09T01:35:44;13.40;99.90
52211;DHT22;38179;52.756;6.906;2022-11-09T01:38:10;13.40;99.90
52211;DHT22;38179;52.756;6.906;2022-11-09T01:40:38;13.40;99.90
52211;DHT22;38179;52.756;6.906;2022-11-09T01:45:37;13.40;99.90
52211;DHT22;38179;52.756;6.906;2022-11-09T01:48:11;13.40;99.90
52211;DHT22;38179;52.756;6.906;2022-11-09T01:50:46;13.30;99.90
52211;DHT22;38179;52.756;6.906;2022-11-09T01:53:19;13.30;99.90
52211;DHT22;38179;52.756;6.906;2022-11-09T01:55:49;13.30;99.90
52211;DHT22;38179;52.756;6.906;2022-11-09T01:58:26;13.20;99.90
52211;DHT22;38179;52.756;6.906;2022-11-09T02:00:56;13.20;99.90
52211;DHT22;38179;52.756;6.906;2022-11-09T02:03:34;13.20;99.90
52211;DHT22;38179;52.756;6.906;2022-11-09T02:06:05;13.20;99.90
52211;DHT22;38179;52.756;6.906;2022-11-09T02:08:33;13.20;99.90
52211;DHT22;38179;52.756;6.906;2022-11-09T02:11:12;13.20;99.90
52211;DHT22;38179;52.756;6.906;2022-11-09T02:13:42;13.10;99.90
52211;DHT22;38179;52.756;6.906;2022-11-09T02:16:11;13.10;99.90
52211;DHT22;38179;52.756;6.906;2022-11-09T02:18:51;13.10;99.90
52211;DHT22;38179;52.756;6.906;2022-11-09T02:21:18;13.10;99.90
52211;DHT22;38179;52.756;6.906;2022-11-09T02:23:44;13.00;99.90
52211;DHT22;38179;52.756;6.906;2022-11-09T02:26:18;13.10;99.90
52211;DHT22;38179;52.756;6.906;2022-11-09T02:28:46;13.00;99.90
52211;DHT22;38179;52.756;6.906;2022-11-09T02:31:14;13.00;99.90
52211;DHT22;38179;52.756;6.906;2022-11-09T02:34:10;13.00;99.90
52211;DHT22;38179;52.756;6.906;2022-11-09T02:36:36;12.90;99.90
52211;DHT22;38179;52.756;6.906;2022-11-09T02:39:03;12.90;99.90
52211;DHT22;38179;52.756;6.906;2022-11-09T02:41:31;12.90;99.90
52211;DHT22;38179;52.756;6.906;2022-11-09T02:43:59;12.90;99.90
52211;DHT22;38179;52.756;6.906;2022-11-09T02:46:33;12.90;99.90
52211;DHT22;38179;52.756;6.906;2022-11-09T02:49:00;12.80;99.90
52211;DHT22;38179;52.756;6.906;2022-11-09T02:51:27;12.90;99.90
52211;DHT22;38179;52.756;6.906;2022-11-09T02:53:53;12.90;99.90
52211;DHT22;38179;52.756;6.906;2022-11-09T02:56:19;12.90;99.90
52211;DHT22;38179;52.756;6.906;2022-11-09T02:58:45;12.90;99.90
52211;DHT22;38179;52.756;6.906;2022-11-09T03:01:11;12.90;99.90
52211;DHT22;38179;52.756;6.906;2022-11-09T03:03:37;12.90;99.90
52211;DHT22;38179;52.756;6.906;2022-11-09T03:06:03;13.00;99.90
52211;DHT22;38179;52.756;6.906;2022-11-09T03:08:29;13.00;99.90
52211;DHT22;38179;52.756;6.906;2022-11-09T03:10:55;13.00;99.90
52211;DHT22;38179;52.756;6.906;2022-11-09T03:13:21;13.00;99.90
52211;DHT22;38179;52.756;6.906;2022-11-09T03:15:47;13.00;99.90
52211;DHT22;38179;52.756;6.906;2022-11-09T03:18:13;13.00;99.90
52211;DHT22;38179;52.756;6.906;2022-11-09T03:20:38;13.00;99.90
52211;DHT22;38179;52.756;6.906;2022-11-09T03:23:04;12.90;99.90
52211;DHT22;38179;52.756;6.906;2022-11-09T03:25:30;12.90;99.90
52211;DHT22;38179;52.756;6.906;2022-11-09T03:28:01;12.80;99.90
52211;DHT22;38179;52.756;6.906;2022-11-09T03:30:27;12.80;99.90
52211;DHT22;38179;52.756;6.906;2022-11-09T03:33:01;12.80;99.90
52211;DHT22;38179;52.756;6.906;2022-11-09T03:35:28;12.80;99.90
52211;DHT22;38179;52.756;6.906;2022-11-09T03:37:54;12.70;99.90
52211;DHT22;38179;52.756;6.906;2022-11-09T03:40:20;12.70;99.90
52211;DHT22;38179;52.756;6.906;2022-11-09T03:42:47;12.80;99.90
52211;DHT22;38179;52.756;6.906;2022-11-09T03:45:15;12.70;99.90
52211;DHT22;38179;52.756;6.906;2022-11-09T03:47:42;12.70;99.90
52211;DHT22;38179;52.756;6.906;2022-11-09T03:50:08;12.70;99.90
52211;DHT22;38179;52.756;6.906;2022-11-09T03:52:35;12.70;99.90
52211;DHT22;38179;52.756;6.906;2022-11-09T03:55:02;12.70;99.90
52211;DHT22;38179;52.756;6.906;2022-11-09T03:57:28;12.80;99.90
52211;DHT22;38179;52.756;6.906;2022-11-09T03:59:54;12.80;99.90
52211;DHT22;38179;52.756;6.906;2022-11-09T04:02:20;12.80;99.90
52211;DHT22;38179;52.756;6.906;2022-11-09T04:04:46;12.80;99.90
52211;DHT22;38179;52.756;6.906;2022-11-09T04:07:11;12.80;99.90
52211;DHT22;38179;52.756;6.906;2022-11-09T04:09:37;12.80;99.90
52211;DHT22;38179;52.756;6.906;2022-11-09T04:12:04;12.70;99.90
52211;DHT22;38179;52.756;6.906;2022-11-09T04:14:30;12.80;99.90
52211;DHT22;38179;52.756;6.906;2022-11-09T04:16:56;12.80;99.90
52211;DHT22;38179;52.756;6.906;2022-11-09T04:19:22;12.80;99.90
52211;DHT22;38179;52.756;6.906;2022-11-09T04:21:48;12.80;99.90
52211;DHT22;38179;52.756;6.906;2022-11-09T04:24:14;12.80;99.90
52211;DHT22;38179;52.756;6.906;2022-11-09T04:26:40;12.80;99.90
52211;DHT22;38179;52.756;6.906;2022-11-09T04:29:06;12.90;99.90
52211;DHT22;38179;52.756;6.906;2022-11-09T04:31:32;12.90;99.90
52211;DHT22;38179;52.756;6.906;2022-11-09T04:33:58;12.90;99.90
52211;DHT22;38179;52.756;6.906;2022-11-09T04:36:24;12.90;99.90
52211;DHT22;38179;52.756;6.906;2022-11-09T04:38:50;12.90;99.90
52211;DHT22;38179;52.756;6.906;2022-11-09T04:41:16;12.90;99.90
52211;DHT22;38179;52.756;6.906;2022-11-09T04:43:42;12.90;99.90
52211;DHT22;38179;52.756;6.906;2022-11-09T04:46:08;12.90;99.90
52211;DHT22;38179;52.756;6.906;2022-11-09T04:48:34;12.90;99.90
52211;DHT22;38179;52.756;6.906;2022-11-09T04:51:01;12.80;99.90
52211;DHT22;38179;52.756;6.906;2022-11-09T04:53:29;12.90;99.90
52211;DHT22;38179;52.756;6.906;2022-11-09T04:55:55;12.90;99.90
52211;DHT22;38179;52.756;6.906;2022-11-09T04:58:21;12.90;99.90
52211;DHT22;38179;52.756;6.906;2022-11-09T05:00:48;12.90;99.90
52211;DHT22;38179;52.756;6.906;2022-11-09T05:03:14;12.80;99.90
52211;DHT22;38179;52.756;6.906;2022-11-09T05:05:39;12.80;99.90
52211;DHT22;38179;52.756;6.906;2022-11-09T05:08:07;12.80;99.90
52211;DHT22;38179;52.756;6.906;2022-11-09T05:10:34;12.80;99.90
52211;DHT22;38179;52.756;6.906;2022-11-09T05:13:05;12.80;99.90
52211;DHT22;38179;52.756;6.906;2022-11-09T05:15:33;12.70;99.90
52211;DHT22;38179;52.756;6.906;2022-11-09T05:17:59;12.70;99.90
52211;DHT22;38179;52.756;6.906;2022-11-09T05:20:27;12.70;99.90
52211;DHT22;38179;52.756;6.906;2022-11-09T05:22:53;12.60;99.90
52211;DHT22;38179;52.756;6.906;2022-11-09T05:25:38;12.60;99.90
52211;DHT22;38179;52.756;6.906;2022-11-09T05:28:04;12.60;99.90
52211;DHT22;38179;52.756;6.906;2022-11-09T05:30:30;12.60;99.90
52211;DHT22;38179;52.756;6.906;2022-11-09T05:32:56;12.60;99.90
52211;DHT22;38179;52.756;6.906;2022-11-09T05:35:22;12.60;99.90
52211;DHT22;38179;52.756;6.906;2022-11-09T05:37:49;12.60;99.90
52211;DHT22;38179;52.756;6.906;2022-11-09T05:40:16;12.60;99.90
52211;DHT22;38179;52.756;6.906;2022-11-09T05:42:43;12.50;99.90
52211;DHT22;38179;52.756;6.906;2022-11-09T05:45:11;12.60;99.90
52211;DHT22;38179;52.756;6.906;2022-11-09T05:47:39;12.50;99.90
52211;DHT22;38179;52.756;6.906;2022-11-09T05:50:06;12.60;99.90
52211;DHT22;38179;52.756;6.906;2022-11-09T05:52:33;12.50;99.90
52211;DHT22;38179;52.756;6.906;2022-11-09T05:54:59;12.50;99.90
52211;DHT22;38179;52.756;6.906;2022-11-09T05:57:26;12.50;99.90
52211;DHT22;38179;52.756;6.906;2022-11-09T05:59:52;12.50;99.90
52211;DHT22;38179;52.756;6.906;2022-11-09T06:02:18;12.50;99.90
52211;DHT22;38179;52.756;6.906;2022-11-09T06:04:44;12.40;99.90
52211;DHT22;38179;52.756;6.906;2022-11-09T06:07:10;12.40;99.90
52211;DHT22;38179;52.756;6.906;2022-11-09T06:09:36;12.40;99.90
52211;DHT22;38179;52.756;6.906;2022-11-09T06:12:02;12.50;99.90
52211;DHT22;38179;52.756;6.906;2022-11-09T06:14:28;12.40;99.90
52211;DHT22;38179;52.756;6.906;2022-11-09T06:16:53;12.40;99.90
52211;DHT22;38179;52.756;6.906;2022-11-09T06:19:19;12.40;99.90
52211;DHT22;38179;52.756;6.906;2022-11-09T06:21:45;12.40;99.90
52211;DHT22;38179;52.756;6.906;2022-11-09T06:24:11;12.40;99.90
52211;DHT22;38179;52.756;6.906;2022-11-09T06:26:37;12.40;99.90
52211;DHT22;38179;52.756;6.906;2022-11-09T06:29:03;12.30;99.90
52211;DHT22;38179;52.756;6.906;2022-11-09T06:31:30;12.30;99.90
52211;DHT22;38179;52.756;6.906;2022-11-09T06:33:56;12.30;99.90
52211;DHT22;38179;52.756;6.906;2022-11-09T06:36:22;12.30;99.90
52211;DHT22;38179;52.756;6.906;2022-11-09T06:38:49;12.20;99.90
52211;DHT22;38179;52.756;6.906;2022-11-09T06:41:15;12.30;99.90
52211;DHT22;38179;52.756;6.906;2022-11-09T06:43:41;12.20;99.90
52211;DHT22;38179;52.756;6.906;2022-11-09T06:46:08;12.20;99.90
52211;DHT22;38179;52.756;6.906;2022-11-09T06:48:36;12.20;99.90
52211;DHT22;38179;52.756;6.906;2022-11-09T06:51:03;12.20;99.90
52211;DHT22;38179;52.756;6.906;2022-11-09T06:53:31;12.20;99.90
52211;DHT22;38179;52.756;6.906;2022-11-09T06:55:58;12.20;99.90
52211;DHT22;38179;52.756;6.906;2022-11-09T06:58:25;12.20;99.90
52211;DHT22;38179;52.756;6.906;2022-11-09T07:00:51;12.20;99.90
52211;DHT22;38179;52.756;6.906;2022-11-09T07:03:19;12.20;99.90
52211;DHT22;38179;52.756;6.906;2022-11-09T07:05:46;12.10;99.90
52211;DHT22;38179;52.756;6.906;2022-11-09T07:08:13;12.10;99.90
52211;DHT22;38179;52.756;6.906;2022-11-09T07:10:39;12.00;99.90
52211;DHT22;38179;52.756;6.906;2022-11-09T07:13:06;12.00;99.90
52211;DHT22;38179;52.756;6.906;2022-11-09T07:15:33;12.00;99.90
52211;DHT22;38179;52.756;6.906;2022-11-09T07:18:02;12.00;99.90
52211;DHT22;38179;52.756;6.906;2022-11-09T07:20:30;12.00;99.90
52211;DHT22;38179;52.756;6.906;2022-11-09T07:22:56;12.00;99.90
52211;DHT22;38179;52.756;6.906;2022-11-09T07:25:22;12.00;99.90
52211;DHT22;38179;52.756;6.906;2022-11-09T07:27:50;12.00;99.90
52211;DHT22;38179;52.756;6.906;2022-11-09T07:30:16;12.00;99.90
52211;DHT22;38179;52.756;6.906;2022-11-09T07:32:42;12.00;99.90
52211;DHT22;38179;52.756;6.906;2022-11-09T07:35:08;12.00;99.90
52211;DHT22;38179;52.756;6.906;2022-11-09T07:37:35;12.00;99.90
52211;DHT22;38179;52.756;6.906;2022-11-09T07:40:01;12.00;99.90
52211;DHT22;38179;52.756;6.906;2022-11-09T07:42:27;12.00;99.90
52211;DHT22;38179;52.756;6.906;2022-11-09T07:44:53;12.10;99.90
52211;DHT22;38179;52.756;6.906;2022-11-09T07:47:19;12.10;99.90
52211;DHT22;38179;52.756;6.906;2022-11-09T07:49:46;12.10;99.90
52211;DHT22;38179;52.756;6.906;2022-11-09T07:52:12;12.10;99.90
52211;DHT22;38179;52.756;6.906;2022-11-09T07:54:38;12.10;99.90
52211;DHT22;38179;52.756;6.906;2022-11-09T07:57:05;12.20;99.90
52211;DHT22;38179;52.756;6.906;2022-11-09T07:59:31;12.20;99.90
52211;DHT22;38179;52.756;6.906;2022-11-09T08:01:57;12.20;99.90
52211;DHT22;38179;52.756;6.906;2022-11-09T08:04:23;12.20;99.90
52211;DHT22;38179;52.756;6.906;2022-11-09T08:06:52;12.20;99.90
52211;DHT22;38179;52.756;6.906;2022-11-09T08:09:19;12.20;99.90
52211;DHT22;38179;52.756;6.906;2022-11-09T08:11:45;12.20;99.90
52211;DHT22;38179;52.756;6.906;2022-11-09T08:14:11;12.30;99.90
52211;DHT22;38179;52.756;6.906;2022-11-09T08:16:37;12.30;99.90
52211;DHT22;38179;52.756;6.906;2022-11-09T08:19:03;12.30;99.90
52211;DHT22;38179;52.756;6.906;2022-11-09T08:21:29;12.30;99.90
52211;DHT22;38179;52.756;6.906;2022-11-09T08:23:55;12.30;99.90
52211;DHT22;38179;52.756;6.906;2022-11-09T08:26:21;12.30;99.90
52211;DHT22;38179;52.756;6.906;2022-11-09T08:28:46;12.30;99.90
52211;DHT22;38179;52.756;6.906;2022-11-09T08:31:13;12.40;99.90
52211;DHT22;38179;52.756;6.906;2022-11-09T08:33:40;12.40;99.90
52211;DHT22;38179;52.756;6.906;2022-11-09T08:36:10;12.40;99.90
52211;DHT22;38179;52.756;6.906;2022-11-09T08:38:37;12.40;99.90
52211;DHT22;38179;52.756;6.906;2022-11-09T08:41:03;12.50;99.90
52211;DHT22;38179;52.756;6.906;2022-11-09T08:43:29;12.50;99.90
52211;DHT22;38179;52.756;6.906;2022-11-09T08:45:55;12.50;99.90
52211;DHT22;38179;52.756;6.906;2022-11-09T08:48:21;12.60;99.90
52211;DHT22;38179;52.756;6.906;2022-11-09T08:50:54;12.60;99.90
52211;DHT22;38179;52.756;6.906;2022-11-09T08:53:22;12.60;99.90
52211;DHT22;38179;52.756;6.906;2022-11-09T08:55:48;12.70;99.90
52211;DHT22;38179;52.756;6.906;2022-11-09T08:58:14;12.70;99.90
52211;DHT22;38179;52.756;6.906;2022-11-09T09:00:40;12.70;99.90
52211;DHT22;38179;52.756;6.906;2022-11-09T09:03:06;12.70;99.90
52211;DHT22;38179;52.756;6.906;2022-11-09T09:05:33;12.80;99.90
52211;DHT22;38179;52.756;6.906;2022-11-09T09:08:00;12.80;99.90
52211;DHT22;38179;52.756;6.906;2022-11-09T09:10:26;12.80;99.90
52211;DHT22;38179;52.756;6.906;2022-11-09T09:12:52;12.80;99.90
52211;DHT22;38179;52.756;6.906;2022-11-09T09:15:18;12.80;99.90
52211;DHT22;38179;52.756;6.906;2022-11-09T09:17:44;12.80;99.90
52211;DHT22;38179;52.756;6.906;2022-11-09T09:20:10;12.80;99.90
52211;DHT22;38179;52.756;6.906;2022-11-09T09:22:37;12.90;99.90
52211;DHT22;38179;52.756;6.906;2022-11-09T09:25:03;12.90;99.90
52211;DHT22;38179;52.756;6.906;2022-11-09T09:27:29;12.90;99.90
52211;DHT22;38179;52.756;6.906;2022-11-09T09:29:55;13.00;99.90
52211;DHT22;38179;52.756;6.906;2022-11-09T09:32:21;13.00;99.90
52211;DHT22;38179;52.756;6.906;2022-11-09T09:34:47;13.10;99.90
52211;DHT22;38179;52.756;6.906;2022-11-09T09:37:14;13.10;99.90
52211;DHT22;38179;52.756;6.906;2022-11-09T09:39:40;13.10;99.90
52211;DHT22;38179;52.756;6.906;2022-11-09T09:42:34;13.20;99.90
52211;DHT22;38179;52.756;6.906;2022-11-09T09:45:06;13.20;99.90
52211;DHT22;38179;52.756;6.906;2022-11-09T09:50:15;13.20;99.90
52211;DHT22;38179;52.756;6.906;2022-11-09T09:53:14;13.20;99.90
52211;DHT22;38179;52.756;6.906;2022-11-09T09:55:45;13.30;99.90
52211;DHT22;38179;52.756;6.906;2022-11-09T09:58:35;13.20;99.90
52211;DHT22;38179;52.756;6.906;2022-11-09T10:01:06;13.20;99.90
52211;DHT22;38179;52.756;6.906;2022-11-09T10:03:36;13.20;99.90
52211;DHT22;38179;52.756;6.906;2022-11-09T10:06:36;13.10;99.90
52211;DHT22;38179;52.756;6.906;2022-11-09T10:12:15;13.10;99.90
52211;DHT22;38179;52.756;6.906;2022-11-09T10:17:40;13.30;99.90
52211;DHT22;38179;52.756;6.906;2022-11-09T10:23:11;13.30;99.90
52211;DHT22;38179;52.756;6.906;2022-11-09T10:25:44;13.20;99.90
52211;DHT22;38179;52.756;6.906;2022-11-09T10:28:15;13.20;99.90
52211;DHT22;38179;52.756;6.906;2022-11-09T10:30:42;13.20;99.90
52211;DHT22;38179;52.756;6.906;2022-11-09T10:33:18;13.20;99.90
52211;DHT22;38179;52.756;6.906;2022-11-09T10:36:14;13.20;99.90
52211;DHT22;38179;52.756;6.906;2022-11-09T10:38:45;13.20;99.90
52211;DHT22;38179;52.756;6.906;2022-11-09T10:44:02;13.30;99.90
52211;DHT22;38179;52.756;6.906;2022-11-09T10:46:28;13.30;99.90
52211;DHT22;38179;52.756;6.906;2022-11-09T10:48:54;13.30;99.90
52211;DHT22;38179;52.756;6.906;2022-11-09T10:51:49;13.40;99.90
52211;DHT22;38179;52.756;6.906;2022-11-09T10:54:20;13.40;99.90
52211;DHT22;38179;52.756;6.906;2022-11-09T10:56:57;13.40;99.90
52211;DHT22;38179;52.756;6.906;2022-11-09T10:59:36;13.50;99.90
52211;DHT22;38179;52.756;6.906;2022-11-09T11:05:19;13.50;99.90
52211;DHT22;38179;52.756;6.906;2022-11-09T11:07:37;13.60;99.90
52211;DHT22;38179;52.756;6.906;2022-11-09T11:12:50;13.60;99.90
52211;DHT22;38179;52.756;6.906;2022-11-09T11:15:37;13.60;99.90
52211;DHT22;38179;52.756;6.906;2022-11-09T11:18:10;13.60;99.90
52211;DHT22;38179;52.756;6.906;2022-11-09T11:20:37;13.70;99.90
52211;DHT22;38179;52.756;6.906;2022-11-09T11:23:22;13.70;99.90
52211;DHT22;38179;52.756;6.906;2022-11-09T11:30:52;13.60;99.90
52211;DHT22;38179;52.756;6.906;2022-11-09T11:33:18;13.70;99.90
52211;DHT22;38179;52.756;6.906;2022-11-09T11:36:00;13.70;99.90
52211;DHT22;38179;52.756;6.906;2022-11-09T11:38:33;13.70;99.90
52211;DHT22;38179;52.756;6.906;2022-11-09T11:43:55;13.70;99.90
52211;DHT22;38179;52.756;6.906;2022-11-09T12:00:13;13.40;99.90
52211;DHT22;38179;52.756;6.906;2022-11-09T12:11:01;13.30;99.90
52211;DHT22;38179;52.756;6.906;2022-11-09T12:16:41;13.40;99.90
52211;DHT22;38179;52.756;6.906;2022-11-09T12:22:22;13.70;99.90
52211;DHT22;38179;52.756;6.906;2022-11-09T12:25:24;13.80;99.90
52211;DHT22;38179;52.756;6.906;2022-11-09T12:31:20;13.80;99.90
52211;DHT22;38179;52.756;6.906;2022-11-09T12:33:59;13.70;99.90
52211;DHT22;38179;52.756;6.906;2022-11-09T12:39:06;13.50;99.90
52211;DHT22;38179;52.756;6.906;2022-11-09T12:41:37;13.50;99.90
52211;DHT22;38179;52.756;6.906;2022-11-09T12:44:23;13.40;99.90
52211;DHT22;38179;52.756;6.906;2022-11-09T12:47:01;13.50;99.90
52211;DHT22;38179;52.756;6.906;2022-11-09T12:49:36;13.60;99.90
52211;DHT22;38179;52.756;6.906;2022-11-09T12:52:07;13.70;99.90
52211;DHT22;38179;52.756;6.906;2022-11-09T12:54:39;13.70;99.90
52211;DHT22;38179;52.756;6.906;2022-11-09T12:57:12;13.70;99.90
52211;DHT22;38179;52.756;6.906;2022-11-09T12:59:51;13.80;99.90
52211;DHT22;38179;52.756;6.906;2022-11-09T13:02:37;13.70;99.90
52211;DHT22;38179;52.756;6.906;2022-11-09T13:05:06;13.80;99.90
52211;DHT22;38179;52.756;6.906;2022-11-09T13:07:46;13.80;99.90
52211;DHT22;38179;52.756;6.906;2022-11-09T13:13:19;13.70;99.90
52211;DHT22;38179;52.756;6.906;2022-11-09T13:16:09;13.70;99.90
52211;DHT22;38179;52.756;6.906;2022-11-09T13:27:01;13.60;99.90
52211;DHT22;38179;52.756;6.906;2022-11-09T13:32:21;13.50;99.90
52211;DHT22;38179;52.756;6.906;2022-11-09T13:34:53;13.40;99.90
52211;DHT22;38179;52.756;6.906;2022-11-09T13:37:44;13.50;99.90
52211;DHT22;38179;52.756;6.906;2022-11-09T13:50:59;13.60;99.90
52211;DHT22;38179;52.756;6.906;2022-11-09T13:54:25;13.60;99.90
52211;DHT22;38179;52.756;6.906;2022-11-09T13:59:19;13.60;99.90
52211;DHT22;38179;52.756;6.906;2022-11-09T14:01:50;13.60;99.90
52211;DHT22;38179;52.756;6.906;2022-11-09T14:07:04;13.60;99.90
52211;DHT22;38179;52.756;6.906;2022-11-09T14:09:54;13.50;99.90
52211;DHT22;38179;52.756;6.906;2022-11-09T14:20:49;13.50;99.90
52211;DHT22;38179;52.756;6.906;2022-11-09T14:23:19;13.40;99.90
52211;DHT22;38179;52.756;6.906;2022-11-09T14:25:46;13.40;99.90
52211;DHT22;38179;52.756;6.906;2022-11-09T14:28:28;13.40;99.90
52211;DHT22;38179;52.756;6.906;2022-11-09T14:30:55;13.40;99.90
52211;DHT22;38179;52.756;6.906;2022-11-09T14:33:27;13.50;99.90
52211;DHT22;38179;52.756;6.906;2022-11-09T14:35:57;13.50;99.90
52211;DHT22;38179;52.756;6.906;2022-11-09T14:40:53;13.50;99.90
52211;DHT22;38179;52.756;6.906;2022-11-09T14:43:58;13.40;99.90
52211;DHT22;38179;52.756;6.906;2022-11-09T14:46:27;13.30;99.90
52211;DHT22;38179;52.756;6.906;2022-11-09T14:48:57;13.30;99.90
52211;DHT22;38179;52.756;6.906;2022-11-09T14:51:42;13.30;99.90
52211;DHT22;38179;52.756;6.906;2022-11-09T14:54:12;13.30;99.90
52211;DHT22;38179;52.756;6.906;2022-11-09T14:56:40;13.30;99.90
52211;DHT22;38179;52.756;6.906;2022-11-09T14:59:13;13.30;99.90
52211;DHT22;38179;52.756;6.906;2022-11-09T15:01:39;13.30;99.90
52211;DHT22;38179;52.756;6.906;2022-11-09T15:04:14;13.20;99.90
52211;DHT22;38179;52.756;6.906;2022-11-09T15:06:55;13.20;99.90
52211;DHT22;38179;52.756;6.906;2022-11-09T15:09:42;13.30;99.90
52211;DHT22;38179;52.756;6.906;2022-11-09T15:14:57;13.20;99.90
52211;DHT22;38179;52.756;6.906;2022-11-09T15:17:33;13.20;99.90
52211;DHT22;38179;52.756;6.906;2022-11-09T15:20:24;13.20;99.90
52211;DHT22;38179;52.756;6.906;2022-11-09T15:25:26;13.20;99.90
52211;DHT22;38179;52.756;6.906;2022-11-09T15:30:28;13.10;99.90
52211;DHT22;38179;52.756;6.906;2022-11-09T15:32:54;13.10;99.90
52211;DHT22;38179;52.756;6.906;2022-11-09T15:35:21;13.10;99.90
52211;DHT22;38179;52.756;6.906;2022-11-09T15:37:50;13.10;99.90
52211;DHT22;38179;52.756;6.906;2022-11-09T15:40:20;13.10;99.90
52211;DHT22;38179;52.756;6.906;2022-11-09T15:42:46;13.10;99.90
52211;DHT22;38179;52.756;6.906;2022-11-09T15:45:17;13.10;99.90
52211;DHT22;38179;52.756;6.906;2022-11-09T15:47:54;13.10;99.90
52211;DHT22;38179;52.756;6.906;2022-11-09T15:50:23;13.00;99.90
52211;DHT22;38179;52.756;6.906;2022-11-09T15:52:50;12.90;99.90
52211;DHT22;38179;52.756;6.906;2022-11-09T15:55:19;12.90;99.90
52211;DHT22;38179;52.756;6.906;2022-11-09T15:57:49;12.90;99.90
52211;DHT22;38179;52.756;6.906;2022-11-09T16:00:19;12.90;99.90
52211;DHT22;38179;52.756;6.906;2022-11-09T16:02:45;12.90;99.90
52211;DHT22;38179;52.756;6.906;2022-11-09T16:05:11;12.80;99.90
52211;DHT22;38179;52.756;6.906;2022-11-09T16:07:46;12.80;99.90
52211;DHT22;38179;52.756;6.906;2022-11-09T16:10:13;12.80;99.90
52211;DHT22;38179;52.756;6.906;2022-11-09T16:12:39;12.80;99.90
52211;DHT22;38179;52.756;6.906;2022-11-09T16:15:05;12.70;99.90
52211;DHT22;38179;52.756;6.906;2022-11-09T16:17:32;12.60;99.90
52211;DHT22;38179;52.756;6.906;2022-11-09T16:19:58;12.50;99.90
52211;DHT22;38179;52.756;6.906;2022-11-09T16:22:28;12.50;99.90
52211;DHT22;38179;52.756;6.906;2022-11-09T16:24:55;12.40;99.90
52211;DHT22;38179;52.756;6.906;2022-11-09T16:27:21;12.30;99.90
52211;DHT22;38179;52.756;6.906;2022-11-09T16:29:47;12.30;99.90
52211;DHT22;38179;52.756;6.906;2022-11-09T16:32:13;12.30;99.90
52211;DHT22;38179;52.756;6.906;2022-11-09T16:34:39;12.20;99.90
52211;DHT22;38179;52.756;6.906;2022-11-09T16:37:05;12.20;99.90
52211;DHT22;38179;52.756;6.906;2022-11-09T16:39:32;12.10;99.90
52211;DHT22;38179;52.756;6.906;2022-11-09T16:42:01;12.10;99.90
52211;DHT22;38179;52.756;6.906;2022-11-09T16:44:33;12.00;99.90
52211;DHT22;38179;52.756;6.906;2022-11-09T16:47:02;11.90;99.90
52211;DHT22;38179;52.756;6.906;2022-11-09T16:49:30;11.80;99.90
52211;DHT22;38179;52.756;6.906;2022-11-09T16:51:56;11.80;99.90
52211;DHT22;38179;52.756;6.906;2022-11-09T16:54:22;11.70;99.90
52211;DHT22;38179;52.756;6.906;2022-11-09T16:56:48;11.60;99.90
52211;DHT22;38179;52.756;6.906;2022-11-09T16:59:14;11.60;99.90
52211;DHT22;38179;52.756;6.906;2022-11-09T17:01:40;11.60;99.90
52211;DHT22;38179;52.756;6.906;2022-11-09T17:04:06;11.60;99.90
52211;DHT22;38179;52.756;6.906;2022-11-09T17:06:33;11.50;99.90
52211;DHT22;38179;52.756;6.906;2022-11-09T17:09:00;11.40;99.90
52211;DHT22;38179;52.756;6.906;2022-11-09T17:11:26;11.40;99.90
52211;DHT22;38179;52.756;6.906;2022-11-09T17:13:56;11.40;99.90
52211;DHT22;38179;52.756;6.906;2022-11-09T17:16:23;11.40;99.90
52211;DHT22;38179;52.756;6.906;2022-11-09T17:18:54;11.40;99.90
52211;DHT22;38179;52.756;6.906;2022-11-09T17:21:20;11.50;99.90
52211;DHT22;38179;52.756;6.906;2022-11-09T17:23:47;11.40;99.90
52211;DHT22;38179;52.756;6.906;2022-11-09T17:26:12;11.40;99.90
52211;DHT22;38179;52.756;6.906;2022-11-09T17:28:39;11.30;99.90
52211;DHT22;38179;52.756;6.906;2022-11-09T17:31:10;11.30;99.90
52211;DHT22;38179;52.756;6.906;2022-11-09T17:33:37;11.20;99.90
52211;DHT22;38179;52.756;6.906;2022-11-09T17:36:05;11.20;99.90
52211;DHT22;38179;52.756;6.906;2022-11-09T17:38:32;11.20;99.90